createdAt,value
2022-10-05T00:01:41.744Z,99058.63
2022-10-05T00:04:15.753Z,99057.97
2022-10-05T00:06:47.706Z,99053.16
2022-10-05T00:09:20.900Z,99048.73
2022-10-05T00:11:47.716Z,99050.95
2022-10-05T00:14:22.783Z,99049.86
2022-10-05T00:16:49.625Z,99046.59
2022-10-05T00:19:23.513Z,99049.59
2022-10-05T00:21:50.080Z,99043.54
2022-10-05T00:24:19.243Z,99042.98
2022-10-05T00:26:46.399Z,99040.56
2022-10-05T00:29:18.995Z,99038.23
2022-10-05T00:31:45.668Z,99037.39
2022-10-05T00:34:12.417Z,99039.42
2022-10-05T00:36:39.496Z,99038.89
2022-10-05T00:39:05.989Z,99032.19
2022-10-05T00:41:42.741Z,99027.19
2022-10-05T00:44:23.824Z,99012.29
2022-10-05T00:47:28.265Z,99002.27
2022-10-05T00:50:08.827Z,98991.61
2022-10-05T00:52:44.171Z,98985.40
2022-10-05T00:55:18.709Z,98979.64
2022-10-05T00:58:04.988Z,98974.36
2022-10-05T01:00:31.690Z,98973.19
2022-10-05T01:02:59.694Z,98971.38
2022-10-05T01:05:44.496Z,98972.25
2022-10-05T01:08:35.743Z,98970.85
2022-10-05T01:11:17.956Z,98975.67
2022-10-05T01:13:44.421Z,98983.64
2022-10-05T01:16:14.202Z,98972.77
2022-10-05T01:19:07.509Z,98970.20
2022-10-05T01:21:38.900Z,98968.52
2022-10-05T01:24:22.809Z,98969.56
2022-10-05T01:26:53.747Z,98976.93
2022-10-05T01:29:32.416Z,98988.65
2022-10-05T01:32:07.737Z,98994.58
2022-10-05T01:34:41.783Z,98993.44
2022-10-05T01:37:23.881Z,98992.02
2022-10-05T01:40:02.817Z,98988.02
2022-10-05T01:42:50.610Z,98972.19
2022-10-05T01:45:44.247Z,98967.55
2022-10-05T01:48:20.044Z,98965.67
2022-10-05T01:51:00.018Z,98967.13
2022-10-05T01:53:45.265Z,98963.07
2022-10-05T01:56:14.863Z,98956.41
2022-10-05T01:59:03.241Z,98959.29
2022-10-05T02:01:36.216Z,98949.99
2022-10-05T02:04:59.835Z,98945.17
2022-10-05T02:07:21.749Z,98947.92
2022-10-05T02:09:59.773Z,98946.98
2022-10-05T02:12:29.271Z,98944.11
2022-10-05T02:14:58.685Z,98937.11
2022-10-05T02:17:29.779Z,98933.30
2022-10-05T02:19:59.359Z,98930.67
2022-10-05T02:22:32.554Z,98929.48
2022-10-05T02:25:01.072Z,98929.91
2022-10-05T02:27:29.735Z,98937.96
2022-10-05T02:29:58.912Z,98949.59
2022-10-05T02:32:27.371Z,98952.67
2022-10-05T02:34:53.958Z,98947.38
2022-10-05T02:37:57.441Z,98943.96
2022-10-05T02:40:41.753Z,98945.36
2022-10-05T02:43:14.659Z,98947.77
2022-10-05T02:46:09.868Z,98952.36
2022-10-05T02:49:13.945Z,98950.86
2022-10-05T02:51:51.762Z,98958.45
2022-10-05T02:54:32.585Z,98960.04
2022-10-05T02:57:16.764Z,98958.40
2022-10-05T03:06:03.101Z,98961.10
2022-10-05T03:08:47.374Z,98968.85
2022-10-05T03:11:29.644Z,98972.44
2022-10-05T03:14:29.025Z,98983.02
2022-10-05T03:17:25.109Z,98994.48
2022-10-05T03:20:13.920Z,98996.66
2022-10-05T03:23:10.516Z,98994.38
2022-10-05T03:26:02.653Z,98992.33
2022-10-05T03:28:48.022Z,98990.96
2022-10-05T03:31:26.669Z,98983.88
2022-10-05T03:33:59.773Z,98978.65
2022-10-05T03:36:39.013Z,98974.21
2022-10-05T03:39:19.405Z,98967.86
2022-10-05T03:41:51.633Z,98960.76
2022-10-05T03:44:43.627Z,98956.96
2022-10-05T03:47:28.834Z,98943.38
2022-10-05T03:50:22.864Z,98937.65
2022-10-05T03:52:51.725Z,98932.12
2022-10-05T03:55:36.388Z,98924.77
2022-10-05T03:58:10.679Z,98913.23
2022-10-05T04:00:37.512Z,98908.60
2022-10-05T04:03:18.923Z,98910.30
2022-10-05T04:05:57.403Z,98910.79
2022-10-05T04:08:47.877Z,98910.23
2022-10-05T04:11:18.609Z,98913.72
2022-10-05T04:13:54.768Z,98925.00
2022-10-05T04:16:23.680Z,98938.23
2022-10-05T04:18:59.084Z,98942.05
2022-10-05T04:21:37.255Z,98950.44
2022-10-05T04:24:07.004Z,98949.89
2022-10-05T04:26:51.253Z,98949.70
2022-10-05T04:29:46.150Z,98945.23
2022-10-05T04:32:16.080Z,98951.02
2022-10-05T04:34:45.372Z,98942.43
2022-10-05T04:37:22.162Z,98929.37
2022-10-05T04:39:59.043Z,98925.56
2022-10-05T04:42:38.416Z,98929.70
2022-10-05T04:45:09.714Z,98923.65
2022-10-05T04:47:58.950Z,98924.59
2022-10-05T04:50:54.829Z,98928.92
2022-10-05T04:53:50.095Z,98927.92
2022-10-05T04:56:20.159Z,98929.09
2022-10-05T04:59:03.852Z,98923.38
2022-10-05T05:01:39.927Z,98921.66
2022-10-05T05:04:25.796Z,98923.89
2022-10-05T05:07:28.889Z,98929.09
2022-10-05T05:10:02.409Z,98936.23
2022-10-05T05:12:49.607Z,98926.90
2022-10-05T05:15:28.328Z,98925.63
2022-10-05T05:18:10.325Z,98927.05
2022-10-05T05:20:41.748Z,98921.77
2022-10-05T05:23:27.154Z,98921.96
2022-10-05T05:26:07.515Z,98926.73
2022-10-05T05:28:54.666Z,98935.98
2022-10-05T05:31:30.980Z,98939.69
2022-10-05T05:34:04.117Z,98934.16
2022-10-05T05:37:00.881Z,98929.32
2022-10-05T05:40:14.208Z,98940.65
2022-10-05T05:42:55.956Z,98938.27
2022-10-05T05:45:48.777Z,98936.23
2022-10-05T05:48:47.099Z,98933.23
2022-10-05T05:51:22.403Z,98930.95
2022-10-05T05:53:55.519Z,98926.95
2022-10-05T05:56:30.646Z,98925.16
2022-10-05T05:59:02.671Z,98924.90
2022-10-05T06:01:46.163Z,98926.25
2022-10-05T06:04:25.215Z,98927.36
2022-10-05T06:06:53.212Z,98921.88
2022-10-05T06:09:47.835Z,98908.48
2022-10-05T06:12:32.877Z,98910.08
2022-10-05T06:15:05.495Z,98916.29
2022-10-05T06:17:41.584Z,98911.98
2022-10-05T06:20:28.977Z,98900.01
2022-10-05T06:22:56.007Z,98895.64
2022-10-05T06:25:57.406Z,98896.66
2022-10-05T06:28:25.114Z,98907.63
2022-10-05T06:31:04.377Z,98916.17
2022-10-05T06:33:52.005Z,98918.19
2022-10-05T06:36:22.234Z,98924.03
2022-10-05T06:39:07.935Z,98923.48
2022-10-05T06:41:42.712Z,98926.23
2022-10-05T06:44:23.441Z,98920.28
2022-10-05T06:47:23.568Z,98924.05
2022-10-05T06:49:56.842Z,98911.50
2022-10-05T06:52:29.563Z,98906.65
2022-10-05T06:54:58.846Z,98904.73
2022-10-05T06:57:52.902Z,98895.80
2022-10-05T07:00:24.971Z,98893.36
2022-10-05T07:03:18.667Z,98899.70
2022-10-05T07:05:54.566Z,98898.65
2022-10-05T07:08:34.066Z,98901.00
2022-10-05T07:11:18.912Z,98895.28
2022-10-05T07:14:06.796Z,98889.77
2022-10-05T07:16:47.161Z,98887.05
2022-10-05T07:19:22.265Z,98896.36
2022-10-05T07:21:58.165Z,98903.23
2022-10-05T07:24:29.368Z,98905.08
2022-10-05T07:30:56.436Z,98896.69
2022-10-05T07:33:29.038Z,98892.95
2022-10-05T07:36:20.316Z,98894.02
2022-10-05T07:38:54.773Z,98896.18
2022-10-05T07:41:47.953Z,98894.00
2022-10-05T07:44:29.631Z,98894.61
2022-10-05T07:47:04.913Z,98892.55
2022-10-05T07:50:09.953Z,98895.39
2022-10-05T07:52:37.972Z,98902.08
2022-10-05T07:55:06.902Z,98901.66
2022-10-05T07:57:58.672Z,98903.56
2022-10-05T08:00:26.338Z,98908.81
2022-10-05T08:02:58.646Z,98909.50
2022-10-05T08:05:43.676Z,98918.71
2022-10-05T08:08:15.505Z,98918.49
2022-10-05T08:11:14.884Z,98916.37
2022-10-05T08:13:56.579Z,98916.45
2022-10-05T08:16:23.495Z,98919.35
2022-10-05T08:19:06.746Z,98919.02
2022-10-05T08:21:35.496Z,98919.42
2022-10-05T08:24:07.207Z,98918.39
2022-10-05T08:26:36.335Z,98914.67
2022-10-05T08:29:17.278Z,98915.55
2022-10-05T08:31:46.349Z,98913.27
2022-10-05T08:34:25.113Z,98913.48
2022-10-05T08:37:03.820Z,98915.18
2022-10-05T08:39:34.363Z,98926.64
2022-10-05T08:42:10.339Z,98918.01
2022-10-05T08:44:55.320Z,98912.92
2022-10-05T08:47:28.299Z,98920.00
2022-10-05T08:50:04.305Z,98921.52
2022-10-05T08:52:56.445Z,98914.67
2022-10-05T08:55:43.811Z,98917.86
2022-10-05T08:58:19.977Z,98920.79
2022-10-05T09:00:57.721Z,98920.77
2022-10-05T09:03:51.614Z,98920.00
2022-10-05T09:06:22.607Z,98918.31
2022-10-05T09:08:55.695Z,98916.14
2022-10-05T09:11:38.974Z,98919.54
2022-10-05T09:14:11.774Z,98919.20
2022-10-05T09:16:59.308Z,98918.67
2022-10-05T09:19:47.333Z,98916.52
2022-10-05T09:22:38.622Z,98916.06
2022-10-05T09:25:30.764Z,98917.30
2022-10-05T09:28:21.927Z,98919.27
2022-10-05T09:31:20.458Z,98917.83
2022-10-05T09:34:26.006Z,98917.98
2022-10-05T09:37:11.855Z,98928.77
2022-10-05T09:40:04.041Z,98923.29
2022-10-05T09:42:34.274Z,98921.96
2022-10-05T09:45:45.881Z,98918.14
2022-10-05T09:48:34.191Z,98918.60
2022-10-05T09:51:00.762Z,98917.60
2022-10-05T09:53:42.574Z,98918.55
2022-10-05T09:56:21.266Z,98912.98
2022-10-05T09:59:25.666Z,98912.16
2022-10-05T10:02:30.912Z,98919.77
2022-10-05T10:05:16.627Z,98927.33
2022-10-05T10:08:00.820Z,98935.94
2022-10-05T10:10:52.996Z,98943.14
2022-10-05T10:13:31.722Z,98944.39
2022-10-05T10:16:16.987Z,98941.32
2022-10-05T10:19:06.794Z,98944.16
2022-10-05T10:21:54.828Z,98937.20
2022-10-05T10:24:26.138Z,98940.10
2022-10-05T10:27:05.726Z,98941.94
2022-10-05T10:29:33.982Z,98940.21
2022-10-05T10:32:21.656Z,98937.96
2022-10-05T10:35:00.499Z,98929.84
2022-10-05T10:38:12.480Z,98923.15
2022-10-05T10:41:02.703Z,98921.14
2022-10-05T10:43:29.815Z,98918.77
2022-10-05T10:46:00.027Z,98921.16
2022-10-05T10:48:29.543Z,98916.60
2022-10-05T10:51:14.612Z,98921.87
2022-10-05T10:54:05.416Z,98920.55
2022-10-05T10:56:55.505Z,98923.77
2022-10-05T11:00:20.881Z,98916.50
2022-10-05T11:02:54.907Z,98916.96
2022-10-05T11:05:52.265Z,98915.30
2022-10-05T11:08:37.894Z,98915.34
2022-10-05T11:11:29.567Z,98918.36
2022-10-05T11:14:04.997Z,98917.65
2022-10-05T11:16:43.675Z,98912.08
2022-10-05T11:19:10.441Z,98921.34
2022-10-05T11:22:00.280Z,98920.58
2022-10-05T11:24:50.589Z,98920.89
2022-10-05T11:27:41.398Z,98917.80
2022-10-05T11:30:40.306Z,98916.16
2022-10-05T11:33:34.646Z,98915.45
2022-10-05T11:36:26.238Z,98908.45
2022-10-05T11:39:05.482Z,98908.14
2022-10-05T11:42:09.431Z,98907.55
2022-10-05T11:44:54.642Z,98911.77
2022-10-05T11:47:42.175Z,98908.21
2022-10-05T11:50:26.905Z,98908.08
2022-10-05T11:53:00.116Z,98902.13
2022-10-05T11:55:27.267Z,98895.98
2022-10-05T11:58:15.962Z,98887.38
2022-10-05T12:00:44.289Z,98881.85
2022-10-05T12:03:35.442Z,98880.92
2022-10-05T12:06:25.732Z,98881.15
2022-10-05T12:09:14.466Z,98878.63
2022-10-05T12:12:23.163Z,98875.08
2022-10-05T12:14:54.665Z,98877.70
2022-10-05T12:17:21.258Z,98876.92
2022-10-05T12:20:28.255Z,98868.04
2022-10-05T12:23:00.743Z,98870.52
2022-10-05T12:25:33.131Z,98872.20
2022-10-05T12:28:05.063Z,98869.50
2022-10-05T12:30:58.204Z,98869.30
2022-10-05T12:33:26.551Z,98862.06
2022-10-05T12:35:56.128Z,98853.10
2022-10-05T12:38:30.788Z,98851.21
2022-10-05T12:41:04.526Z,98845.98
2022-10-05T12:43:54.385Z,98839.13
2022-10-05T12:46:29.906Z,98841.60
2022-10-05T12:49:06.978Z,98841.98
2022-10-05T12:51:58.533Z,98843.80
2022-10-05T12:54:47.704Z,98844.89
2022-10-05T12:57:32.665Z,98838.23
2022-10-05T13:00:01.747Z,98839.09
2022-10-05T13:02:42.483Z,98840.91
2022-10-05T13:05:09.538Z,98840.02
2022-10-05T13:07:54.774Z,98835.08
2022-10-05T13:10:39.415Z,98842.52
2022-10-05T13:13:34.231Z,98840.23
2022-10-05T13:16:17.223Z,98834.02
2022-10-05T13:19:15.563Z,98834.69
2022-10-05T13:22:10.274Z,98835.03
2022-10-05T13:24:59.515Z,98832.71
2022-10-05T13:27:47.266Z,98833.36
2022-10-05T13:30:19.150Z,98827.77
2022-10-05T13:32:47.953Z,98828.13
2022-10-05T13:35:53.406Z,98828.27
2022-10-05T13:38:34.171Z,98819.77
2022-10-05T13:41:14.782Z,98817.54
2022-10-05T13:43:51.482Z,98814.13
2022-10-05T13:46:23.732Z,98814.40
2022-10-05T13:49:09.093Z,98804.13
2022-10-05T13:51:41.108Z,98801.98
2022-10-05T13:54:45.160Z,98800.13
2022-10-05T13:57:11.885Z,98799.20
2022-10-05T13:59:51.218Z,98799.38
2022-10-05T14:02:40.147Z,98800.89
2022-10-05T14:05:29.795Z,98802.63
2022-10-05T14:08:02.475Z,98799.75
2022-10-05T14:10:38.590Z,98799.02
2022-10-05T14:13:32.367Z,98798.79
2022-10-05T14:15:59.803Z,98795.94
2022-10-05T14:18:28.032Z,98801.95
2022-10-05T14:21:18.822Z,98799.10
2022-10-05T14:23:45.367Z,98801.48
2022-10-05T14:26:27.526Z,98796.63
2022-10-05T14:29:19.482Z,98798.06
2022-10-05T14:31:58.476Z,98798.19
2022-10-05T14:34:35.539Z,98799.08
2022-10-05T14:37:23.398Z,98799.70
2022-10-05T14:39:52.220Z,98791.01
2022-10-05T14:42:27.809Z,98796.95
2022-10-05T14:45:11.920Z,98795.30
2022-10-05T14:47:54.402Z,98791.00
2022-10-05T14:50:26.213Z,98787.48
2022-10-05T14:53:22.571Z,98790.42
2022-10-05T14:55:55.917Z,98793.02
2022-10-05T14:58:24.340Z,98790.63
2022-10-05T15:00:56.955Z,98783.45
2022-10-05T15:03:41.770Z,98785.75
2022-10-05T15:06:16.262Z,98779.05
2022-10-05T15:09:17.652Z,98779.13
2022-10-05T15:11:47.132Z,98780.73
2022-10-05T15:14:25.445Z,98783.04
2022-10-05T15:16:54.044Z,98775.58
2022-10-05T15:19:27.873Z,98773.56
2022-10-05T15:22:19.541Z,98778.05
2022-10-05T15:24:53.232Z,98776.73
2022-10-05T15:27:36.474Z,98772.17
2022-10-05T15:30:13.997Z,98772.10
2022-10-05T15:33:08.729Z,98767.16
2022-10-05T15:35:44.607Z,98763.70
2022-10-05T15:38:34.258Z,98768.59
2022-10-05T15:41:20.619Z,98772.30
2022-10-05T15:44:13.451Z,98772.66
2022-10-05T15:47:02.834Z,98771.23
2022-10-05T15:49:37.081Z,98764.81
2022-10-05T15:52:12.176Z,98766.02
2022-10-05T15:55:04.804Z,98766.34
2022-10-05T15:57:53.643Z,98768.88
2022-10-05T16:00:21.047Z,98768.34
2022-10-05T16:03:02.662Z,98771.59
2022-10-05T16:05:56.648Z,98773.85
2022-10-05T16:08:51.100Z,98766.29
2022-10-05T16:11:42.539Z,98767.11
2022-10-05T16:14:43.521Z,98766.20
2022-10-05T16:17:47.324Z,98763.55
2022-10-05T16:20:23.007Z,98764.98
2022-10-05T16:22:52.131Z,98760.83
2022-10-05T16:25:34.948Z,98763.09
2022-10-05T16:28:20.461Z,98763.30
2022-10-05T16:31:03.269Z,98762.91
2022-10-05T16:33:48.007Z,98761.34
2022-10-05T16:36:26.712Z,98761.91
2022-10-05T16:39:01.330Z,98766.60
2022-10-05T16:41:35.105Z,98765.61
2022-10-05T16:44:13.466Z,98770.75
2022-10-05T16:46:47.098Z,98769.80
2022-10-05T16:49:38.537Z,98772.30
2022-10-05T16:52:07.224Z,98776.17
2022-10-05T16:54:47.713Z,98774.06
2022-10-05T16:57:27.543Z,98768.72
2022-10-05T17:00:19.472Z,98769.73
2022-10-05T17:02:55.403Z,98768.56
2022-10-05T17:06:07.851Z,98766.08
2022-10-05T17:09:19.083Z,98764.86
2022-10-05T17:12:10.663Z,98760.45
2022-10-05T17:14:59.292Z,98756.73
2022-10-05T17:17:51.997Z,98757.08
2022-10-05T17:20:42.767Z,98761.39
2022-10-05T17:23:31.244Z,98769.23
2022-10-05T17:26:34.418Z,98776.41
2022-10-05T17:29:32.161Z,98768.21
2022-10-05T17:32:12.235Z,98761.84
2022-10-05T17:34:39.995Z,98766.13
2022-10-05T17:37:36.012Z,98764.92
2022-10-05T17:40:28.584Z,98764.17
2022-10-05T17:43:17.310Z,98760.39
2022-10-05T17:45:43.807Z,98760.30
2022-10-05T17:48:13.337Z,98765.42
2022-10-05T17:51:05.490Z,98762.52
2022-10-05T17:54:07.409Z,98754.92
2022-10-05T17:56:48.890Z,98753.83
2022-10-05T17:59:46.354Z,98754.56
2022-10-05T18:02:43.455Z,98762.98
2022-10-05T18:05:12.197Z,98762.24
2022-10-05T18:07:39.562Z,98767.80
2022-10-05T18:10:12.204Z,98770.08
2022-10-05T18:12:42.514Z,98770.79
2022-10-05T18:15:24.477Z,98773.64
2022-10-05T18:17:51.560Z,98775.66
2022-10-05T18:20:24.000Z,98777.80
2022-10-05T18:22:53.348Z,98774.08
2022-10-05T18:25:27.206Z,98771.06
2022-10-05T18:28:09.117Z,98766.60
2022-10-05T18:31:05.929Z,98770.39
2022-10-05T18:33:54.689Z,98770.27
2022-10-05T18:36:44.579Z,98773.39
2022-10-05T18:39:15.394Z,98780.04
2022-10-05T18:42:22.993Z,98780.05
2022-10-05T18:44:51.734Z,98774.79
2022-10-05T18:47:22.458Z,98773.42
2022-10-05T18:49:51.838Z,98777.90
2022-10-05T18:52:36.599Z,98770.64
2022-10-05T18:55:24.829Z,98770.86
2022-10-05T18:58:00.750Z,98774.71
2022-10-05T19:00:40.994Z,98771.10
2022-10-05T19:03:26.846Z,98767.52
2022-10-05T19:06:13.043Z,98769.95
2022-10-05T19:09:24.741Z,98770.25
2022-10-05T19:12:12.215Z,98769.82
2022-10-05T19:15:06.784Z,98772.20
2022-10-05T19:17:52.189Z,98772.41
2022-10-05T19:20:41.698Z,98773.58
2022-10-05T19:23:16.872Z,98775.64
2022-10-05T19:25:47.689Z,98768.55
2022-10-05T19:28:29.716Z,98775.38
2022-10-05T19:31:21.335Z,98773.19
2022-10-05T19:34:10.746Z,98780.42
2022-10-05T19:37:10.519Z,98779.46
2022-10-05T19:39:46.433Z,98786.16
2022-10-05T19:42:47.329Z,98787.06
2022-10-05T19:45:27.224Z,98787.70
2022-10-05T19:48:02.918Z,98788.23
2022-10-05T19:50:30.934Z,98784.27
2022-10-05T19:53:23.178Z,98786.98
2022-10-05T19:55:49.854Z,98785.45
2022-10-05T19:58:25.239Z,98787.31
2022-10-05T20:00:58.648Z,98789.51
2022-10-05T20:03:32.439Z,98792.15
2022-10-05T20:06:06.003Z,98794.46
2022-10-05T20:08:51.312Z,98789.29
2022-10-05T20:11:19.566Z,98791.30
2022-10-05T20:13:48.475Z,98790.77
2022-10-05T20:16:33.814Z,98792.13
2022-10-05T20:19:19.694Z,98794.84
2022-10-05T20:21:46.203Z,98795.75
2022-10-05T20:24:20.958Z,98796.88
2022-10-05T20:27:16.542Z,98797.69
2022-10-05T20:29:44.266Z,98796.09
2022-10-05T20:32:12.292Z,98793.36
2022-10-05T20:34:43.557Z,98796.81
2022-10-05T20:37:11.642Z,98794.05
2022-10-05T20:39:38.419Z,98794.59
2022-10-05T20:42:05.273Z,98796.52
2022-10-05T20:44:31.877Z,98795.92
2022-10-05T20:46:58.723Z,98797.87
2022-10-05T20:49:26.580Z,98795.25
2022-10-05T20:51:55.685Z,98794.61
2022-10-05T20:54:25.283Z,98802.77
2022-10-05T20:56:52.386Z,98798.73
2022-10-05T20:59:19.123Z,98799.25
2022-10-05T21:01:48.137Z,98797.55
2022-10-05T21:04:18.991Z,98800.11
2022-10-05T21:06:45.954Z,98796.79
2022-10-05T21:09:14.702Z,98796.16
2022-10-05T21:11:45.177Z,98797.66
2022-10-05T21:14:11.947Z,98802.16
2022-10-05T21:16:40.923Z,98801.53
2022-10-05T21:19:12.307Z,98803.28
2022-10-05T21:21:40.170Z,98804.40
2022-10-05T21:24:06.908Z,98803.98
2022-10-05T21:26:33.838Z,98804.95
2022-10-05T21:29:01.124Z,98804.27
2022-10-05T21:31:28.276Z,98806.88
2022-10-05T21:33:55.167Z,98804.12
2022-10-05T21:36:24.578Z,98801.15
2022-10-05T21:38:51.953Z,98797.64
2022-10-05T21:41:18.982Z,98800.52
2022-10-05T21:43:45.703Z,98800.00
2022-10-05T21:46:14.592Z,98800.52
2022-10-05T21:48:41.558Z,98804.45
2022-10-05T21:51:08.777Z,98801.23
2022-10-05T21:53:37.820Z,98800.83
2022-10-05T21:56:05.684Z,98802.66
2022-10-05T21:58:32.410Z,98802.63
2022-10-05T22:00:58.905Z,98805.04
2022-10-05T22:03:25.692Z,98807.52
2022-10-05T22:05:52.395Z,98810.18
2022-10-05T22:08:24.706Z,98813.51
2022-10-05T22:10:52.922Z,98809.64
2022-10-05T22:13:19.830Z,98806.04
2022-10-05T22:15:46.455Z,98807.94
2022-10-05T22:18:15.899Z,98806.14
2022-10-05T22:20:42.943Z,98802.99
2022-10-05T22:23:09.477Z,98799.45
2022-10-05T22:25:36.172Z,98800.26
2022-10-05T22:28:02.908Z,98800.20
2022-10-05T22:30:29.521Z,98801.73
2022-10-05T22:32:56.277Z,98803.59
2022-10-05T22:35:22.884Z,98805.50
2022-10-05T22:37:49.403Z,98811.87
2022-10-05T22:40:16.289Z,98809.94
2022-10-05T22:42:43.271Z,98809.73
2022-10-05T22:45:09.734Z,98809.17
2022-10-05T22:47:36.358Z,98814.05
2022-10-05T22:50:03.458Z,98817.69
2022-10-05T22:52:29.905Z,98821.52
2022-10-05T22:54:56.830Z,98819.13
2022-10-05T22:57:23.665Z,98821.09
2022-10-05T22:59:50.169Z,98827.39
2022-10-05T23:02:18.808Z,98827.01
2022-10-05T23:04:46.160Z,98831.81
2022-10-05T23:07:12.604Z,98834.86
2022-10-05T23:09:39.421Z,98834.02
2022-10-05T23:12:06.151Z,98835.38
2022-10-05T23:14:33.401Z,98838.34
2022-10-05T23:17:00.432Z,98842.81
2022-10-05T23:19:26.990Z,98844.22
2022-10-05T23:21:53.626Z,98849.14
2022-10-05T23:24:20.570Z,98850.50
2022-10-05T23:26:47.027Z,98856.77
2022-10-05T23:29:13.525Z,98856.70
2022-10-05T23:31:40.790Z,98860.27
2022-10-05T23:34:07.427Z,98858.52
2022-10-05T23:36:33.918Z,98860.23
2022-10-05T23:39:01.001Z,98859.02
2022-10-05T23:41:27.509Z,98862.65
2022-10-05T23:43:55.391Z,98864.67
2022-10-05T23:46:22.588Z,98866.35
2022-10-05T23:48:50.536Z,98868.17
2022-10-05T23:51:17.063Z,98869.11
2022-10-05T23:53:44.224Z,98872.40
2022-10-05T23:56:10.690Z,98875.46
2022-10-05T23:58:37.337Z,98876.61
